createdAt,value
2018-05-23T00:00:00.687Z,53.07
2018-05-23T00:01:00.688Z,53.05
2018-05-23T00:02:00.649Z,53.06
2018-05-23T00:03:00.655Z,53.05
2018-05-23T00:04:00.657Z,53.04
2018-05-23T00:05:00.518Z,53.09
2018-05-23T00:06:00.691Z,53.05
2018-05-23T00:07:00.626Z,53.07
2018-05-23T00:08:00.758Z,53.09
2018-05-23T00:09:00.584Z,53.09
2018-05-23T00:10:00.620Z,53.04
2018-05-23T00:11:00.519Z,53.13
2018-05-23T00:12:00.796Z,53.14
2018-05-23T00:13:00.853Z,53.06
2018-05-23T00:14:00.510Z,53.1
2018-05-23T00:15:00.615Z,53.11
2018-05-23T00:16:00.673Z,53.08
2018-05-23T00:17:00.506Z,53.02
2018-05-23T00:18:00.728Z,53.14
2018-05-23T00:19:00.704Z,53.03
2018-05-23T00:20:00.665Z,53.08
2018-05-23T00:21:00.641Z,53.04
2018-05-23T00:22:00.520Z,53.14
2018-05-23T00:23:00.504Z,53.06
2018-05-23T00:24:00.763Z,53.06
2018-05-23T00:25:00.669Z,53.04
2018-05-23T00:26:00.718Z,53.09
2018-05-23T00:27:00.579Z,53.04
2018-05-23T00:28:00.536Z,53.05
2018-05-23T00:29:00.530Z,53.05
2018-05-23T00:30:00.798Z,53.12
2018-05-23T00:31:00.488Z,53.04
2018-05-23T00:32:00.555Z,53.05
2018-05-23T00:33:00.492Z,53.08
2018-05-23T00:34:00.658Z,53.05
2018-05-23T00:35:00.627Z,53.02
2018-05-23T00:36:00.546Z,53.13
2018-05-23T00:37:00.622Z,53.13
2018-05-23T00:38:00.589Z,53.02
2018-05-23T00:39:00.495Z,53.08
2018-05-23T00:40:00.442Z,53.07
2018-05-23T00:41:00.560Z,53.05
2018-05-23T00:42:00.564Z,53.07
2018-05-23T00:43:00.691Z,53.01
2018-05-23T00:44:00.675Z,53.09
2018-05-23T00:45:00.647Z,53.12
2018-05-23T00:46:00.563Z,53.06
2018-05-23T00:47:00.647Z,53.02
2018-05-23T00:48:00.561Z,53.09
2018-05-23T00:49:00.497Z,53.09
2018-05-23T00:50:00.535Z,53.11
2018-05-23T00:51:00.752Z,53.05
2018-05-23T00:52:00.592Z,53.11
2018-05-23T00:53:00.677Z,53.08
2018-05-23T00:54:00.638Z,53.1
2018-05-23T00:55:00.660Z,53.09
2018-05-23T00:56:00.451Z,53.05
2018-05-23T00:57:00.635Z,53.03
2018-05-23T00:58:10.519Z,53.05
2018-05-23T00:59:00.466Z,53.06
2018-05-23T01:00:00.668Z,53.04
2018-05-23T01:01:00.541Z,53.08
2018-05-23T01:02:00.658Z,53.02
2018-05-23T01:03:00.398Z,53.05
2018-05-23T01:04:00.871Z,53.09
2018-05-23T01:05:00.737Z,53.08
2018-05-23T01:06:00.680Z,53.02
2018-05-23T01:07:00.698Z,53.1
2018-05-23T01:08:00.679Z,53.03
2018-05-23T01:09:00.633Z,53.03
2018-05-23T01:10:00.461Z,53.12
2018-05-23T01:11:00.818Z,53
2018-05-23T01:12:00.547Z,53.03
2018-05-23T01:13:00.592Z,53.06
2018-05-23T01:14:00.747Z,53.01
2018-05-23T01:15:00.662Z,53.04
2018-05-23T01:16:00.506Z,53.01
2018-05-23T01:17:00.559Z,53.03
2018-05-23T01:18:00.588Z,52.97
2018-05-23T01:19:00.568Z,53.03
2018-05-23T01:20:00.839Z,53
2018-05-23T01:21:00.560Z,53.02
2018-05-23T01:22:00.475Z,53.12
2018-05-23T01:23:00.726Z,53.04
2018-05-23T01:24:00.699Z,53.05
2018-05-23T01:25:00.765Z,52.96
2018-05-23T01:26:00.586Z,53.03
2018-05-23T01:27:00.717Z,52.99
2018-05-23T01:28:00.532Z,52.99
2018-05-23T01:29:00.834Z,52.96
2018-05-23T01:30:00.662Z,52.94
2018-05-23T01:31:00.548Z,52.96
2018-05-23T01:32:00.497Z,52.96
2018-05-23T01:33:00.752Z,53.09
2018-05-23T01:34:00.463Z,52.99
2018-05-23T01:35:00.630Z,52.98
2018-05-23T01:36:00.707Z,53.02
2018-05-23T01:37:00.449Z,53.01
2018-05-23T01:38:00.718Z,53.01
2018-05-23T01:39:00.703Z,53.1
2018-05-23T01:40:00.679Z,52.98
2018-05-23T01:41:00.552Z,52.98
2018-05-23T01:42:00.575Z,52.96
2018-05-23T01:43:00.604Z,52.98
2018-05-23T01:44:00.675Z,53.01
2018-05-23T01:45:00.459Z,53.02
2018-05-23T01:46:00.488Z,53.02
2018-05-23T01:47:00.452Z,52.92
2018-05-23T01:48:00.818Z,52.97
2018-05-23T01:49:00.643Z,52.98
2018-05-23T01:50:00.636Z,52.94
2018-05-23T01:51:00.470Z,52.96
2018-05-23T01:52:00.652Z,52.93
2018-05-23T01:53:00.562Z,52.98
2018-05-23T01:54:00.496Z,52.94
2018-05-23T01:55:00.720Z,53
2018-05-23T01:56:00.475Z,52.94
2018-05-23T01:57:00.581Z,52.98
2018-05-23T01:58:00.671Z,52.99
2018-05-23T01:59:00.573Z,52.98
2018-05-23T02:00:00.719Z,52.95
2018-05-23T02:01:00.575Z,52.95
2018-05-23T02:02:00.628Z,52.96
2018-05-23T02:03:00.481Z,52.96
2018-05-23T02:04:00.485Z,52.98
2018-05-23T02:05:00.630Z,52.93
2018-05-23T02:06:00.868Z,52.92
2018-05-23T02:07:00.574Z,52.96
2018-05-23T02:08:00.656Z,52.95
2018-05-23T02:09:00.496Z,53.02
2018-05-23T02:10:00.689Z,52.99
2018-05-23T02:11:00.611Z,52.95
2018-05-23T02:12:00.494Z,52.91
2018-05-23T02:13:00.979Z,52.93
2018-05-23T02:14:00.655Z,52.93
2018-05-23T02:15:00.838Z,52.97
2018-05-23T02:16:00.678Z,53.01
2018-05-23T02:17:00.507Z,52.94
2018-05-23T02:18:00.661Z,52.95
2018-05-23T02:19:00.736Z,52.9
2018-05-23T02:20:00.663Z,52.88
2018-05-23T02:21:00.490Z,52.88
2018-05-23T02:22:00.752Z,52.87
2018-05-23T02:23:00.637Z,52.93
2018-05-23T02:24:00.607Z,52.94
2018-05-23T02:25:00.494Z,53.01
2018-05-23T02:26:00.670Z,52.96
2018-05-23T02:27:00.647Z,52.95
2018-05-23T02:28:00.486Z,52.9
2018-05-23T02:29:00.502Z,52.97
2018-05-23T02:30:00.476Z,52.93
2018-05-23T02:31:00.767Z,52.91
2018-05-23T02:32:00.669Z,52.91
2018-05-23T02:33:00.776Z,52.94
2018-05-23T02:34:00.605Z,52.84
2018-05-23T02:35:00.634Z,52.97
2018-05-23T02:36:00.566Z,52.92
2018-05-23T02:37:00.669Z,52.92
2018-05-23T02:38:00.705Z,52.83
2018-05-23T02:39:00.589Z,52.96
2018-05-23T02:40:00.663Z,52.84
2018-05-23T02:41:00.662Z,52.92
2018-05-23T02:42:00.596Z,52.91
2018-05-23T02:43:00.644Z,52.95
2018-05-23T02:44:00.537Z,52.91
2018-05-23T02:45:00.628Z,52.91
2018-05-23T02:46:00.667Z,52.93
2018-05-23T02:47:00.753Z,52.98
2018-05-23T02:48:00.488Z,52.88
2018-05-23T02:49:00.740Z,52.96
2018-05-23T02:50:00.508Z,52.87
2018-05-23T02:51:00.476Z,52.89
2018-05-23T02:52:00.623Z,52.95
2018-05-23T02:53:00.550Z,52.9
2018-05-23T02:54:00.561Z,52.93
2018-05-23T02:55:00.560Z,52.91
2018-05-23T02:56:00.516Z,52.89
2018-05-23T02:57:00.519Z,52.82
2018-05-23T02:58:00.528Z,52.95
2018-05-23T02:59:00.622Z,52.89
2018-05-23T03:00:00.485Z,52.93
2018-05-23T03:01:00.459Z,52.9
2018-05-23T03:02:00.710Z,52.88
2018-05-23T03:03:00.799Z,52.92
2018-05-23T03:04:00.624Z,52.92
2018-05-23T03:05:00.635Z,52.9
2018-05-23T03:06:00.448Z,52.93
2018-05-23T03:07:00.655Z,52.9
2018-05-23T03:08:00.592Z,52.87
2018-05-23T03:09:00.599Z,52.87
2018-05-23T03:10:00.575Z,52.83
2018-05-23T03:11:00.546Z,52.88
2018-05-23T03:12:00.700Z,52.9
2018-05-23T03:13:00.523Z,52.87
2018-05-23T03:14:00.491Z,52.83
2018-05-23T03:15:00.468Z,52.89
2018-05-23T03:16:00.552Z,52.89
2018-05-23T03:17:00.891Z,52.89
2018-05-23T03:18:00.635Z,52.99
2018-05-23T03:19:00.663Z,52.84
2018-05-23T03:20:00.488Z,52.85
2018-05-23T03:21:00.559Z,52.93
2018-05-23T03:22:00.739Z,52.85
2018-05-23T03:23:00.628Z,52.83
2018-05-23T03:24:00.436Z,52.87
2018-05-23T03:25:00.510Z,52.91
2018-05-23T03:26:00.655Z,52.83
2018-05-23T03:27:00.605Z,52.91
2018-05-23T03:28:00.796Z,52.89
2018-05-23T03:29:00.597Z,52.79
2018-05-23T03:30:00.567Z,52.91
2018-05-23T03:31:00.610Z,52.88
2018-05-23T03:32:00.465Z,52.87
2018-05-23T03:33:00.462Z,52.95
2018-05-23T03:34:00.648Z,52.87
2018-05-23T03:35:00.585Z,52.86
2018-05-23T03:36:00.657Z,52.86
2018-05-23T03:37:00.492Z,52.95
2018-05-23T03:38:00.557Z,52.85
2018-05-23T03:39:00.742Z,52.86
2018-05-23T03:40:00.448Z,52.82
2018-05-23T03:41:00.652Z,52.83
2018-05-23T03:42:00.531Z,52.9
2018-05-23T03:43:00.480Z,52.89
2018-05-23T03:44:00.568Z,52.93
2018-05-23T03:45:00.585Z,52.93
2018-05-23T03:46:00.645Z,52.88
2018-05-23T03:47:00.569Z,52.81
2018-05-23T03:48:00.669Z,52.88
2018-05-23T03:49:00.674Z,52.86
2018-05-23T03:50:00.559Z,52.87
2018-05-23T03:51:10.475Z,52.84
2018-05-23T03:52:00.642Z,52.94
2018-05-23T03:53:00.736Z,52.83
2018-05-23T03:54:00.604Z,52.82
2018-05-23T03:55:00.693Z,52.9
2018-05-23T03:56:00.425Z,52.89
2018-05-23T03:57:00.448Z,52.9
2018-05-23T03:58:00.591Z,52.93
2018-05-23T03:59:00.478Z,52.84
2018-05-23T04:00:00.530Z,52.87
2018-05-23T04:01:00.567Z,52.91
2018-05-23T04:02:00.674Z,52.82
2018-05-23T04:03:00.400Z,52.84
2018-05-23T04:04:00.497Z,52.82
2018-05-23T04:05:00.635Z,52.87
2018-05-23T04:06:00.671Z,52.88
2018-05-23T04:07:00.518Z,52.91
2018-05-23T04:08:00.429Z,52.86
2018-05-23T04:09:00.470Z,52.87
2018-05-23T04:10:00.653Z,52.85
2018-05-23T04:11:00.495Z,52.84
2018-05-23T04:12:00.426Z,52.91
2018-05-23T04:13:00.659Z,52.84
2018-05-23T04:14:00.860Z,52.95
2018-05-23T04:15:00.524Z,52.9
2018-05-23T04:16:00.444Z,52.85
2018-05-23T04:17:00.535Z,52.86
2018-05-23T04:18:00.527Z,52.86
2018-05-23T04:19:00.534Z,52.88
2018-05-23T04:20:00.456Z,52.83
2018-05-23T04:21:10.460Z,52.85
2018-05-23T04:22:00.529Z,52.78
2018-05-23T04:23:00.691Z,52.81
2018-05-23T04:24:00.711Z,52.79
2018-05-23T04:25:00.826Z,52.85
2018-05-23T04:26:00.554Z,52.83
2018-05-23T04:27:00.584Z,52.9
2018-05-23T04:28:00.464Z,52.87
2018-05-23T04:29:00.702Z,52.79
2018-05-23T04:30:00.624Z,52.84
2018-05-23T04:31:00.439Z,52.81
2018-05-23T04:32:00.467Z,52.81
2018-05-23T04:33:00.527Z,52.82
2018-05-23T04:34:00.542Z,52.85
2018-05-23T04:35:00.697Z,52.8
2018-05-23T04:36:00.545Z,52.87
2018-05-23T04:37:00.692Z,52.85
2018-05-23T04:38:00.576Z,52.74
2018-05-23T04:39:00.599Z,52.84
2018-05-23T04:40:00.509Z,52.81
2018-05-23T04:41:00.409Z,52.81
2018-05-23T04:42:00.474Z,52.82
2018-05-23T04:43:00.485Z,52.79
2018-05-23T04:44:00.671Z,52.77
2018-05-23T04:45:00.476Z,52.78
2018-05-23T04:46:00.531Z,52.78
2018-05-23T04:47:00.435Z,52.76
2018-05-23T04:48:00.486Z,52.83
2018-05-23T04:49:00.528Z,52.76
2018-05-23T04:50:00.765Z,52.8
2018-05-23T04:51:00.404Z,52.82
2018-05-23T04:52:00.582Z,52.8
2018-05-23T04:53:00.536Z,52.77
2018-05-23T04:54:00.671Z,52.83
2018-05-23T04:55:00.619Z,52.8
2018-05-23T04:56:00.684Z,52.78
2018-05-23T04:57:00.661Z,52.71
2018-05-23T04:58:00.640Z,52.83
2018-05-23T04:59:00.704Z,52.81
2018-05-23T05:00:00.633Z,52.81
2018-05-23T05:01:00.501Z,52.79
2018-05-23T05:02:00.697Z,52.74
2018-05-23T05:03:00.667Z,52.8
2018-05-23T05:04:00.550Z,52.78
2018-05-23T05:05:00.560Z,52.73
2018-05-23T05:06:00.593Z,52.82
2018-05-23T05:07:00.632Z,52.71
2018-05-23T05:08:00.469Z,52.89
2018-05-23T05:09:00.414Z,52.83
2018-05-23T05:10:00.740Z,52.77
2018-05-23T05:11:00.466Z,52.76
2018-05-23T05:12:00.597Z,52.79
2018-05-23T05:13:00.493Z,52.86
2018-05-23T05:14:00.585Z,52.79
2018-05-23T05:15:00.658Z,52.81
2018-05-23T05:16:00.486Z,52.78
2018-05-23T05:17:00.585Z,52.77
2018-05-23T05:18:00.466Z,52.77
2018-05-23T05:19:00.433Z,52.78
2018-05-23T05:20:00.455Z,52.78
2018-05-23T05:21:00.651Z,52.77
2018-05-23T05:22:00.626Z,52.75
2018-05-23T05:23:00.704Z,52.78
2018-05-23T05:24:00.614Z,52.75
2018-05-23T05:25:00.803Z,52.74
2018-05-23T05:26:00.497Z,52.78
2018-05-23T05:27:00.390Z,52.79
2018-05-23T05:28:00.489Z,52.75
2018-05-23T05:29:00.622Z,52.76
2018-05-23T05:30:00.456Z,52.75
2018-05-23T05:31:00.529Z,52.83
2018-05-23T05:32:00.520Z,52.79
2018-05-23T05:33:00.667Z,52.78
2018-05-23T05:34:00.532Z,52.71
2018-05-23T05:35:00.483Z,52.75
2018-05-23T05:36:00.413Z,52.83
2018-05-23T05:37:00.446Z,52.81
2018-05-23T05:38:00.519Z,52.79
2018-05-23T05:39:00.600Z,52.86
2018-05-23T05:40:00.429Z,52.76
2018-05-23T05:41:00.447Z,52.72
2018-05-23T05:42:00.489Z,52.83
2018-05-23T05:43:00.609Z,52.79
2018-05-23T05:44:00.679Z,52.76
2018-05-23T05:45:00.345Z,52.78
2018-05-23T05:46:00.553Z,52.81
2018-05-23T05:47:00.620Z,52.79
2018-05-23T05:48:00.477Z,52.72
2018-05-23T05:49:00.509Z,52.78
2018-05-23T05:50:00.605Z,52.84
2018-05-23T05:51:00.417Z,52.84
2018-05-23T05:52:00.524Z,52.88
2018-05-23T05:53:00.585Z,52.75
2018-05-23T05:54:00.362Z,52.81
2018-05-23T05:55:00.763Z,52.76
2018-05-23T05:56:00.611Z,52.74
2018-05-23T05:57:00.531Z,52.83
2018-05-23T05:58:00.392Z,52.76
2018-05-23T05:59:00.678Z,52.84
2018-05-23T06:00:00.698Z,52.8
2018-05-23T06:01:00.550Z,52.77
2018-05-23T06:02:00.597Z,52.77
2018-05-23T06:03:00.431Z,52.82
2018-05-23T06:04:00.600Z,52.8
2018-05-23T06:05:00.665Z,52.84
2018-05-23T06:06:00.693Z,52.83
2018-05-23T06:07:00.635Z,52.81
2018-05-23T06:08:00.543Z,52.78
2018-05-23T06:09:00.457Z,52.81
2018-05-23T06:10:00.982Z,52.76
2018-05-23T06:11:00.439Z,52.84
2018-05-23T06:12:00.457Z,52.85
2018-05-23T06:13:00.445Z,52.8
2018-05-23T06:14:00.376Z,52.76
2018-05-23T06:15:00.445Z,52.78
2018-05-23T06:16:00.579Z,52.75
2018-05-23T06:17:00.645Z,52.77
2018-05-23T06:18:00.498Z,52.75
2018-05-23T06:19:00.374Z,52.76
2018-05-23T06:20:00.389Z,52.8
2018-05-23T06:21:00.393Z,52.81
2018-05-23T06:22:00.500Z,52.79
2018-05-23T06:23:00.451Z,52.81
2018-05-23T06:24:00.467Z,52.8
2018-05-23T06:25:00.535Z,52.79
2018-05-23T06:26:00.541Z,52.78
2018-05-23T06:27:00.614Z,52.71
2018-05-23T06:28:00.488Z,52.83
2018-05-23T06:29:00.437Z,52.77
2018-05-23T06:30:00.353Z,52.73
2018-05-23T06:31:00.502Z,52.8
2018-05-23T06:32:00.477Z,52.8
2018-05-23T06:33:00.522Z,52.78
2018-05-23T06:34:00.645Z,52.8
2018-05-23T06:35:00.448Z,52.76
2018-05-23T06:36:00.443Z,52.78
2018-05-23T06:37:00.543Z,52.74
2018-05-23T06:38:00.640Z,52.73
2018-05-23T06:39:00.341Z,52.76
2018-05-23T06:40:00.622Z,52.78
2018-05-23T06:41:00.629Z,52.75
2018-05-23T06:42:00.573Z,52.74
2018-05-23T06:43:00.637Z,52.86
2018-05-23T06:44:00.503Z,52.78
2018-05-23T06:45:00.746Z,52.78
2018-05-23T06:46:00.528Z,52.75
2018-05-23T06:47:00.488Z,52.76
2018-05-23T06:48:00.384Z,52.79
2018-05-23T06:49:00.508Z,52.86
2018-05-23T06:50:00.872Z,52.76
2018-05-23T06:51:00.489Z,52.78
2018-05-23T06:52:00.572Z,52.75
2018-05-23T06:53:00.556Z,52.77
2018-05-23T06:54:00.426Z,52.76
2018-05-23T06:55:00.512Z,52.76
2018-05-23T06:56:00.651Z,52.94
2018-05-23T06:57:00.435Z,53.28
2018-05-23T06:58:00.436Z,53.54
2018-05-23T06:59:00.628Z,53.05
2018-05-23T07:00:00.655Z,53.07
2018-05-23T07:01:00.658Z,53.02
2018-05-23T07:02:00.379Z,52.88
2018-05-23T07:03:00.566Z,52.79
2018-05-23T07:04:00.585Z,53.05
2018-05-23T07:05:00.589Z,53.09
2018-05-23T07:06:00.379Z,53.17
2018-05-23T07:07:00.456Z,52.94
2018-05-23T07:08:00.538Z,52.99
2018-05-23T07:09:00.389Z,53.01
2018-05-23T07:10:00.487Z,53.02
2018-05-23T07:11:00.728Z,52.94
2018-05-23T07:12:00.542Z,53.01
2018-05-23T07:13:00.650Z,53.03
2018-05-23T07:14:00.490Z,53
2018-05-23T07:15:00.401Z,53.09
2018-05-23T07:16:00.643Z,53.02
2018-05-23T07:17:00.522Z,53.03
2018-05-23T07:18:00.896Z,53.07
2018-05-23T07:19:00.509Z,53.08
2018-05-23T07:20:00.443Z,53.1
2018-05-23T07:21:00.565Z,53
2018-05-23T07:22:00.380Z,52.98
2018-05-23T07:23:00.530Z,53.05
2018-05-23T07:24:00.468Z,53.06
2018-05-23T07:25:00.462Z,52.99
2018-05-23T07:26:00.598Z,53.07
2018-05-23T07:27:00.689Z,53.05
2018-05-23T07:28:00.603Z,52.99
2018-05-23T07:29:00.640Z,52.99
2018-05-23T07:30:00.468Z,53.02
2018-05-23T07:31:00.354Z,53.06
2018-05-23T07:32:00.568Z,53.02
2018-05-23T07:33:00.399Z,53.11
2018-05-23T07:34:00.472Z,52.99
2018-05-23T07:35:00.593Z,53.05
2018-05-23T07:36:00.553Z,52.99
2018-05-23T07:37:00.675Z,52.99
2018-05-23T07:38:00.504Z,52.96
2018-05-23T07:39:00.670Z,52.88
2018-05-23T07:40:00.496Z,53.01
2018-05-23T07:41:00.433Z,52.97
2018-05-23T07:42:00.365Z,52.9
2018-05-23T07:43:00.601Z,52.99
2018-05-23T07:44:00.340Z,52.95
2018-05-23T07:45:00.630Z,52.98
2018-05-23T07:46:00.415Z,53.02
2018-05-23T07:47:00.479Z,52.97
2018-05-23T07:48:00.450Z,53.03
2018-05-23T07:49:03.750Z,52.89
2018-05-23T07:50:00.454Z,52.93
2018-05-23T07:51:00.394Z,52.96
2018-05-23T07:52:00.698Z,52.96
2018-05-23T07:53:00.463Z,52.88
2018-05-23T07:54:00.570Z,52.95
2018-05-23T07:55:00.446Z,52.92
2018-05-23T07:56:00.447Z,52.98
2018-05-23T07:57:00.558Z,52.85
2018-05-23T07:58:00.465Z,52.89
2018-05-23T07:59:00.496Z,52.93
2018-05-23T08:00:00.320Z,52.91
2018-05-23T08:01:00.498Z,52.88
2018-05-23T08:02:00.510Z,52.89
2018-05-23T08:03:00.557Z,52.94
2018-05-23T08:04:00.529Z,52.87
2018-05-23T08:05:00.546Z,52.93
2018-05-23T08:06:00.414Z,52.9
2018-05-23T08:07:00.387Z,52.91
2018-05-23T08:08:00.509Z,52.89
2018-05-23T08:09:00.375Z,52.9
2018-05-23T08:10:00.391Z,52.84
2018-05-23T08:11:00.453Z,52.9
2018-05-23T08:12:00.486Z,52.88
2018-05-23T08:13:00.644Z,52.84
2018-05-23T08:14:00.581Z,52.81
2018-05-23T08:15:00.487Z,52.92
2018-05-23T08:16:00.459Z,52.85
2018-05-23T08:17:00.432Z,52.79
2018-05-23T08:18:00.341Z,52.82
2018-05-23T08:19:00.596Z,52.79
2018-05-23T08:20:00.596Z,52.8
2018-05-23T08:21:00.426Z,52.79
2018-05-23T08:22:00.359Z,52.8
2018-05-23T08:23:00.485Z,52.82
2018-05-23T08:24:00.721Z,52.86
2018-05-23T08:25:00.586Z,52.8
2018-05-23T08:26:00.392Z,52.82
2018-05-23T08:27:00.328Z,52.77
2018-05-23T08:28:00.374Z,52.79
2018-05-23T08:29:00.514Z,52.78
2018-05-23T08:30:00.381Z,52.85
2018-05-23T08:31:00.597Z,52.8
2018-05-23T08:32:00.466Z,52.79
2018-05-23T08:33:00.419Z,52.85
2018-05-23T08:34:00.599Z,52.79
2018-05-23T08:35:00.360Z,52.84
2018-05-23T08:36:00.358Z,52.81
2018-05-23T08:37:00.421Z,52.8
2018-05-23T08:38:00.395Z,52.78
2018-05-23T08:39:00.741Z,52.82
2018-05-23T08:40:00.433Z,52.8
2018-05-23T08:41:00.545Z,52.83
2018-05-23T08:42:00.412Z,52.86
2018-05-23T08:43:00.326Z,52.8
2018-05-23T08:44:00.610Z,52.83
2018-05-23T08:45:00.501Z,52.85
2018-05-23T08:46:00.478Z,52.84
2018-05-23T08:47:10.384Z,52.75
2018-05-23T08:48:00.554Z,52.82
2018-05-23T08:49:00.665Z,52.7
2018-05-23T08:50:00.592Z,52.84
2018-05-23T08:51:00.568Z,52.82
2018-05-23T08:52:00.360Z,52.82
2018-05-23T08:53:00.500Z,52.74
2018-05-23T08:54:00.745Z,52.75
2018-05-23T08:55:00.596Z,52.84
2018-05-23T08:56:00.481Z,52.73
2018-05-23T08:57:00.451Z,52.78
2018-05-23T08:58:00.422Z,52.85
2018-05-23T08:59:00.474Z,52.77
2018-05-23T09:00:00.406Z,52.83
2018-05-23T09:01:00.466Z,52.78
2018-05-23T09:02:00.542Z,52.77
2018-05-23T09:03:00.501Z,52.72
2018-05-23T09:04:00.663Z,52.75
2018-05-23T09:05:00.816Z,52.8
2018-05-23T09:06:00.536Z,52.77
2018-05-23T09:07:00.489Z,52.79
2018-05-23T09:08:00.356Z,52.75
2018-05-23T09:09:00.417Z,52.77
2018-05-23T09:10:00.467Z,52.77
2018-05-23T09:11:00.528Z,52.75
2018-05-23T09:12:00.415Z,52.81
2018-05-23T09:13:00.503Z,52.77
2018-05-23T09:14:00.444Z,52.71
2018-05-23T09:15:00.424Z,52.74
2018-05-23T09:16:00.462Z,52.73
2018-05-23T09:17:00.368Z,52.75
2018-05-23T09:18:00.334Z,52.75
2018-05-23T09:19:00.679Z,52.79
2018-05-23T09:20:00.381Z,52.85
2018-05-23T09:21:00.379Z,52.77
2018-05-23T09:22:00.561Z,52.69
2018-05-23T09:23:00.645Z,52.8
2018-05-23T09:24:00.422Z,52.79
2018-05-23T09:25:00.512Z,52.79
2018-05-23T09:26:00.342Z,52.81
2018-05-23T09:27:00.516Z,52.83
2018-05-23T09:28:00.355Z,52.78
2018-05-23T09:29:00.406Z,52.72
2018-05-23T09:30:00.585Z,52.76
2018-05-23T09:31:00.377Z,52.84
2018-05-23T09:32:00.548Z,52.77
2018-05-23T09:33:00.458Z,52.79
2018-05-23T09:34:00.309Z,52.76
2018-05-23T09:35:00.381Z,52.82
2018-05-23T09:36:00.618Z,52.79
2018-05-23T09:37:00.671Z,52.81
2018-05-23T09:38:00.372Z,52.72
2018-05-23T09:39:00.390Z,52.8
2018-05-23T09:40:00.373Z,52.75
2018-05-23T09:41:00.544Z,52.77
2018-05-23T09:42:00.526Z,52.77
2018-05-23T09:43:00.462Z,52.76
2018-05-23T09:44:00.348Z,52.74
2018-05-23T09:45:00.518Z,52.77
2018-05-23T09:46:00.416Z,52.77
2018-05-23T09:47:00.487Z,52.76
2018-05-23T09:48:00.530Z,52.83
2018-05-23T09:49:00.641Z,52.78
2018-05-23T09:50:00.383Z,52.72
2018-05-23T09:51:00.430Z,52.73
2018-05-23T09:52:00.403Z,52.73
2018-05-23T09:53:00.400Z,52.78
2018-05-23T09:54:00.685Z,52.73
2018-05-23T09:55:00.523Z,52.73
2018-05-23T09:56:00.572Z,52.73
2018-05-23T09:57:00.472Z,52.71
2018-05-23T09:58:00.371Z,52.75
2018-05-23T09:59:00.333Z,52.65
2018-05-23T10:00:00.510Z,52.77
2018-05-23T10:01:00.408Z,52.74
2018-05-23T10:02:00.358Z,52.65
2018-05-23T10:03:00.600Z,52.68
2018-05-23T10:04:00.377Z,52.72
2018-05-23T10:05:00.366Z,52.69
2018-05-23T10:06:00.637Z,52.72
2018-05-23T10:07:00.670Z,52.69
2018-05-23T10:08:00.685Z,52.65
2018-05-23T10:09:00.367Z,52.61
2018-05-23T10:10:00.453Z,52.75
2018-05-23T10:11:00.309Z,52.67
2018-05-23T10:12:00.438Z,52.7
2018-05-23T10:13:00.392Z,52.69
2018-05-23T10:14:00.553Z,52.66
2018-05-23T10:15:00.457Z,52.72
2018-05-23T10:16:00.453Z,52.63
2018-05-23T10:17:00.321Z,52.67
2018-05-23T10:18:00.401Z,52.69
2018-05-23T10:19:00.342Z,52.61
2018-05-23T10:20:00.358Z,52.66
2018-05-23T10:21:00.354Z,52.69
2018-05-23T10:22:00.483Z,52.67
2018-05-23T10:23:00.391Z,52.7
2018-05-23T10:24:00.679Z,52.75
2018-05-23T10:25:00.572Z,52.73
2018-05-23T10:26:00.525Z,52.64
2018-05-23T10:27:00.532Z,52.68
2018-05-23T10:28:00.398Z,52.62
2018-05-23T10:29:00.335Z,52.66
2018-05-23T10:30:00.428Z,52.67
2018-05-23T10:31:00.523Z,52.61
2018-05-23T10:32:00.591Z,52.63
2018-05-23T10:33:00.407Z,52.69
2018-05-23T10:34:00.475Z,52.74
2018-05-23T10:35:00.306Z,52.69
2018-05-23T10:36:00.629Z,52.65
2018-05-23T10:37:00.333Z,52.57
2018-05-23T10:38:00.302Z,52.68
2018-05-23T10:39:00.418Z,52.68
2018-05-23T10:40:00.500Z,52.63
2018-05-23T10:41:00.451Z,52.57
2018-05-23T10:42:00.502Z,52.68
2018-05-23T10:43:00.544Z,52.67
2018-05-23T10:44:00.350Z,52.67
2018-05-23T10:45:00.501Z,52.68
2018-05-23T10:46:00.543Z,52.6
2018-05-23T10:47:00.366Z,52.7
2018-05-23T10:48:00.362Z,52.72
2018-05-23T10:49:00.539Z,52.63
2018-05-23T10:50:00.304Z,52.63
2018-05-23T10:51:00.350Z,52.66
2018-05-23T10:52:00.632Z,52.66
2018-05-23T10:53:00.569Z,52.63
2018-05-23T10:54:00.341Z,52.59
2018-05-23T10:55:00.299Z,52.64
2018-05-23T10:56:00.502Z,52.59
2018-05-23T10:57:00.432Z,52.67
2018-05-23T10:58:00.335Z,52.66
2018-05-23T10:59:00.533Z,52.63
2018-05-23T11:00:00.408Z,52.57
2018-05-23T11:01:00.453Z,52.57
2018-05-23T11:02:00.560Z,52.61
2018-05-23T11:03:00.590Z,52.66
2018-05-23T11:04:00.381Z,52.66
2018-05-23T11:05:00.331Z,52.62
2018-05-23T11:06:00.702Z,52.55
2018-05-23T11:07:00.460Z,52.6
2018-05-23T11:08:00.423Z,52.61
2018-05-23T11:09:00.650Z,52.59
2018-05-23T11:10:00.439Z,52.58
2018-05-23T11:11:00.674Z,52.56
2018-05-23T11:12:00.787Z,52.65
2018-05-23T11:13:00.359Z,52.62
2018-05-23T11:14:00.408Z,52.62
2018-05-23T11:15:00.473Z,52.67
2018-05-23T11:16:10.424Z,52.56
2018-05-23T11:17:00.765Z,52.58
2018-05-23T11:18:00.538Z,52.64
2018-05-23T11:19:00.378Z,52.59
2018-05-23T11:20:00.449Z,52.52
2018-05-23T11:21:00.359Z,52.57
2018-05-23T11:22:00.420Z,52.64
2018-05-23T11:23:00.365Z,52.56
2018-05-23T11:24:00.613Z,52.58
2018-05-23T11:25:00.469Z,52.67
2018-05-23T11:26:00.341Z,52.57
2018-05-23T11:27:00.496Z,52.61
2018-05-23T11:28:00.431Z,52.62
2018-05-23T11:29:00.352Z,52.58
2018-05-23T11:30:00.538Z,52.53
2018-05-23T11:31:00.413Z,52.56
2018-05-23T11:32:00.369Z,52.6
2018-05-23T11:33:00.493Z,52.59
2018-05-23T11:34:00.516Z,52.6
2018-05-23T11:35:00.320Z,52.54
2018-05-23T11:36:00.347Z,52.58
2018-05-23T11:37:00.471Z,52.56
2018-05-23T11:38:00.528Z,52.59
2018-05-23T11:39:00.282Z,52.58
2018-05-23T11:40:00.735Z,52.51
2018-05-23T11:41:00.352Z,52.56
2018-05-23T11:42:00.455Z,52.53
2018-05-23T11:43:00.566Z,52.57
2018-05-23T11:44:00.287Z,52.58
2018-05-23T11:45:00.317Z,52.62
2018-05-23T11:46:00.467Z,52.55
2018-05-23T11:47:00.426Z,52.51
2018-05-23T11:48:00.409Z,52.56
2018-05-23T11:49:00.405Z,52.58
2018-05-23T11:50:00.307Z,52.56
2018-05-23T11:51:00.440Z,52.56
2018-05-23T11:52:00.404Z,52.56
2018-05-23T11:53:00.243Z,52.51
2018-05-23T11:54:00.530Z,52.57
2018-05-23T11:55:00.506Z,52.49
2018-05-23T11:56:00.457Z,52.54
2018-05-23T11:57:00.336Z,52.52
2018-05-23T11:58:00.401Z,52.48
2018-05-23T11:59:00.502Z,52.53
2018-05-23T12:00:00.506Z,52.53
2018-05-23T12:01:00.417Z,52.44
2018-05-23T12:02:00.323Z,52.5
2018-05-23T12:03:00.348Z,52.52
2018-05-23T12:04:00.290Z,52.48
2018-05-23T12:05:00.419Z,52.5
2018-05-23T12:06:00.442Z,52.54
2018-05-23T12:07:00.417Z,52.54
2018-05-23T12:08:00.474Z,52.46
2018-05-23T12:09:00.421Z,52.48
2018-05-23T12:10:00.420Z,52.54
2018-05-23T12:11:00.509Z,52.49
2018-05-23T12:12:00.344Z,52.51
2018-05-23T12:13:00.322Z,52.53
2018-05-23T12:14:00.327Z,52.53
2018-05-23T12:15:00.314Z,52.51
2018-05-23T12:16:00.508Z,52.53
2018-05-23T12:17:00.410Z,52.52
2018-05-23T12:18:00.355Z,52.45
2018-05-23T12:19:00.396Z,52.48
2018-05-23T12:20:00.321Z,52.47
2018-05-23T12:21:00.371Z,52.43
2018-05-23T12:22:00.337Z,52.44
2018-05-23T12:23:00.517Z,52.49
2018-05-23T12:24:00.383Z,52.52
2018-05-23T12:25:00.364Z,52.49
2018-05-23T12:26:00.474Z,52.45
2018-05-23T12:27:00.524Z,52.49
2018-05-23T12:28:00.572Z,52.5
2018-05-23T12:29:00.469Z,52.43
2018-05-23T12:30:00.510Z,52.5
2018-05-23T12:31:00.288Z,52.47
2018-05-23T12:32:00.271Z,52.45
2018-05-23T12:33:00.386Z,52.46
2018-05-23T12:34:00.455Z,52.46
2018-05-23T12:35:00.294Z,52.42
2018-05-23T12:36:00.429Z,52.46
2018-05-23T12:37:00.401Z,52.49
2018-05-23T12:38:00.502Z,52.47
2018-05-23T12:39:00.431Z,52.54
2018-05-23T12:40:00.283Z,52.48
2018-05-23T12:41:00.586Z,52.48
2018-05-23T12:42:00.397Z,52.5
2018-05-23T12:43:00.360Z,52.51
2018-05-23T12:44:00.300Z,52.5
2018-05-23T12:45:00.296Z,52.49
2018-05-23T12:46:00.511Z,52.47
2018-05-23T12:47:00.475Z,52.42
2018-05-23T12:48:00.575Z,52.49
2018-05-23T12:49:00.284Z,52.52
2018-05-23T12:50:00.295Z,52.51
2018-05-23T12:51:00.396Z,52.51
2018-05-23T12:52:00.505Z,52.49
2018-05-23T12:53:00.458Z,52.48
2018-05-23T12:54:00.576Z,52.48
2018-05-23T12:55:00.429Z,52.46